Time;durP1;ratioP1;P1;durP2;ratioP2;P2;SDS_P1;SDS_P2;PMS_P1;PMS_P2;Temp;Humidity;BMP_temperature;BMP_pressure;BME280_temperature;BME280_humidity;BME280_pressure;Samples;Min_cycle;Max_cycle;Signal;HPM_P1;HPM_P2
2023/02/22 00:00:18;;;;;;;;;;;9.10;73.70;;;;;;5001656;28;93669;-38
2023/02/22 00:02:48;;;;;;;;;;;9.10;73.80;;;;;;5000704;28;94489;-38
2023/02/22 00:05:15;;;;;;;;;;;9.10;73.80;;;;;;5001249;28;92162;-38
2023/02/22 00:07:43;;;;;;;;;;;9.10;73.70;;;;;;5000515;28;93964;-38
2023/02/22 00:10:12;;;;;;;;;;;9.10;73.80;;;;;;5003659;28;94385;-38
2023/02/22 00:12:41;;;;;;;;;;;9.10;73.80;;;;;;5000838;28;94012;-38
2023/02/22 00:15:07;;;;;;;;;;;9.10;73.80;;;;;;5000440;28;94515;-38
2023/02/22 00:17:33;;;;;;;;;;;9.00;73.70;;;;;;5000833;28;92144;-38
2023/02/22 00:19:58;;;;;;;;;;;9.00;73.70;;;;;;5000747;28;93656;-39
2023/02/22 00:22:24;;;;;;;;;;;9.00;73.80;;;;;;5000258;28;94508;-39
2023/02/22 00:24:49;;;;;;;;;;;9.00;73.80;;;;;;5001020;28;91421;-38
2023/02/22 00:27:15;;;;;;;;;;;9.00;73.80;;;;;;5000800;28;92984;-38
2023/02/22 00:29:45;;;;;;;;;;;9.00;73.80;;;;;;5000206;28;94527;-38
2023/02/22 00:32:10;;;;;;;;;;;9.00;73.70;;;;;;5003296;28;93068;-39
2023/02/22 00:34:36;;;;;;;;;;;9.00;73.70;;;;;;5000156;28;94557;-38
2023/02/22 00:37:03;;;;;;;;;;;8.90;73.60;;;;;;5000673;28;92161;-38
2023/02/22 00:39:31;;;;;;;;;;;9.00;73.70;;;;;;5000301;28;94206;-38
2023/02/22 00:41:57;;;;;;;;;;;8.90;73.50;;;;;;4999743;28;94587;-38
2023/02/22 00:44:22;;;;;;;;;;;8.90;73.60;;;;;;5000456;28;92119;-39
2023/02/22 00:46:48;;;;;;;;;;;8.90;73.70;;;;;;5000488;28;93028;-38
2023/02/22 00:49:16;;;;;;;;;;;8.90;73.60;;;;;;5000491;28;94086;-38
2023/02/22 00:51:42;;;;;;;;;;;8.90;73.60;;;;;;5000558;28;92171;-39
2023/02/22 00:54:08;;;;;;;;;;;8.90;73.70;;;;;;5002681;28;94022;-39
2023/02/22 00:56:36;;;;;;;;;;;8.90;73.70;;;;;;4999573;28;93054;-39
2023/02/22 00:59:02;;;;;;;;;;;8.90;73.70;;;;;;4999958;28;94985;-38
2023/02/22 01:01:27;;;;;;;;;;;8.90;73.40;;;;;;4999571;28;94296;-38
2023/02/22 01:03:53;;;;;;;;;;;8.80;73.50;;;;;;4999452;28;92170;-39
2023/02/22 01:06:18;;;;;;;;;;;8.80;73.50;;;;;;4999655;28;92509;-39
2023/02/22 01:08:44;;;;;;;;;;;8.80;73.50;;;;;;4999729;28;93319;-38
2023/02/22 01:11:10;;;;;;;;;;;8.80;73.50;;;;;;4999661;28;92229;-39
2023/02/22 01:13:36;;;;;;;;;;;8.80;73.60;;;;;;5003100;28;93976;-38
2023/02/22 01:16:02;;;;;;;;;;;8.80;73.50;;;;;;5000111;28;92144;-39
2023/02/22 01:18:27;;;;;;;;;;;8.80;73.50;;;;;;5000140;28;94090;-38
2023/02/22 01:20:53;;;;;;;;;;;8.70;73.40;;;;;;4998556;28;95727;-38
2023/02/22 01:23:18;;;;;;;;;;;8.80;73.50;;;;;;4999897;28;92137;-38
2023/02/22 01:25:44;;;;;;;;;;;8.70;73.50;;;;;;4999957;28;93685;-39
2023/02/22 01:28:10;;;;;;;;;;;8.70;73.50;;;;;;4999225;28;94502;-39
2023/02/22 01:30:35;;;;;;;;;;;8.70;73.50;;;;;;4999521;28;92184;-38
2023/02/22 01:33:02;;;;;;;;;;;8.70;73.50;;;;;;4999766;28;92871;-38
2023/02/22 01:35:29;;;;;;;;;;;8.70;73.50;;;;;;5002470;28;93272;-38
2023/02/22 01:37:56;;;;;;;;;;;8.70;73.30;;;;;;5000182;28;93764;-38
2023/02/22 01:40:24;;;;;;;;;;;8.60;73.50;;;;;;4998856;28;94715;-39
2023/02/22 01:42:53;;;;;;;;;;;8.60;73.40;;;;;;4999733;28;92113;-39
2023/02/22 01:45:34;;;;;;;;;;;8.60;73.50;;;;;;4998953;28;93648;-39
2023/02/22 01:48:18;;;;;;;;;;;8.60;73.40;;;;;;4998877;28;94370;-38
2023/02/22 01:50:55;;;;;;;;;;;8.60;73.50;;;;;;4999166;28;92152;-38
2023/02/22 01:53:23;;;;;;;;;;;8.60;73.40;;;;;;4999421;28;93986;-38
2023/02/22 01:55:49;;;;;;;;;;;8.60;73.50;;;;;;4998936;28;94608;-38
2023/02/22 01:58:17;;;;;;;;;;;8.60;73.40;;;;;;5002686;28;92161;-39
2023/02/22 02:00:43;;;;;;;;;;;8.60;73.40;;;;;;4998609;28;94563;-38
2023/02/22 02:03:20;;;;;;;;;;;8.60;73.40;;;;;;4999242;28;92389;-38
2023/02/22 02:05:46;;;;;;;;;;;8.50;73.20;;;;;;4999256;28;93320;-38
2023/02/22 02:08:35;;;;;;;;;;;8.50;73.30;;;;;;4998730;28;94663;-38
2023/02/22 02:11:01;;;;;;;;;;;8.50;73.30;;;;;;4998707;28;93163;-39
2023/02/22 02:13:27;;;;;;;;;;;8.50;73.10;;;;;;4998971;28;94758;-38
2023/02/22 02:15:54;;;;;;;;;;;8.50;73.40;;;;;;4997495;28;94275;-38
2023/02/22 02:18:20;;;;;;;;;;;8.40;73.20;;;;;;4999088;28;92143;-38
2023/02/22 02:21:18;;;;;;;;;;;8.50;73.20;;;;;;5001625;28;94000;-38
2023/02/22 02:24:02;;;;;;;;;;;8.50;73.20;;;;;;4975455;28;92153;-38
2023/02/22 02:26:27;;;;;;;;;;;8.40;73.00;;;;;;4999023;28;94279;-39
2023/02/22 02:29:12;;;;;;;;;;;8.40;73.20;;;;;;4998835;28;93295;-38
2023/02/22 02:32:00;;;;;;;;;;;8.40;73.30;;;;;;4998816;28;92258;-38
2023/02/22 02:34:45;;;;;;;;;;;8.40;73.20;;;;;;4998888;28;93797;-38
2023/02/22 02:37:13;;;;;;;;;;;8.40;73.20;;;;;;4997964;28;94011;-38
2023/02/22 02:39:42;;;;;;;;;;;8.40;73.20;;;;;;4998602;28;92133;-39
2023/02/22 02:42:10;;;;;;;;;;;8.40;73.20;;;;;;4998958;28;93739;-38
2023/02/22 02:44:38;;;;;;;;;;;8.30;73.20;;;;;;5001376;28;93992;-38
2023/02/22 02:47:16;;;;;;;;;;;8.30;73.10;;;;;;4998744;28;93903;-39
2023/02/22 02:49:50;;;;;;;;;;;8.30;73.20;;;;;;4998070;28;94373;-38
2023/02/22 02:52:17;;;;;;;;;;;8.30;73.20;;;;;;4998763;28;92439;-38
2023/02/22 02:54:44;;;;;;;;;;;8.30;73.20;;;;;;4999158;28;92290;-38
2023/02/22 02:57:10;;;;;;;;;;;8.30;73.20;;;;;;4997902;28;94879;-38
2023/02/22 02:59:36;;;;;;;;;;;8.30;73.20;;;;;;4998656;28;92232;-38
2023/02/22 03:02:13;;;;;;;;;;;8.20;73.20;;;;;;4997919;28;94005;-38
2023/02/22 03:04:53;;;;;;;;;;;8.20;73.30;;;;;;4998230;28;94727;-38
2023/02/22 03:07:42;;;;;;;;;;;8.20;73.20;;;;;;5001185;28;92127;-38
2023/02/22 03:10:13;;;;;;;;;;;8.20;73.10;;;;;;4997511;28;94486;-38
2023/02/22 03:12:41;;;;;;;;;;;8.20;73.20;;;;;;4998327;28;92164;-38
2023/02/22 03:15:42;;;;;;;;;;;8.20;73.30;;;;;;4998735;28;92457;-39
2023/02/22 03:18:16;;;;;;;;;;;8.20;73.30;;;;;;4955695;28;94532;-38
2023/02/22 03:20:50;;;;;;;;;;;8.20;73.30;;;;;;4991903;28;91429;-38
2023/02/22 03:23:32;;;;;;;;;;;8.20;73.30;;;;;;4998406;28;92143;-39
2023/02/22 03:26:10;;;;;;;;;;;8.10;73.20;;;;;;4998702;28;92259;-38
2023/02/22 03:28:39;;;;;;;;;;;8.10;73.30;;;;;;5004066;28;93108;-39
2023/02/22 03:31:25;;;;;;;;;;;8.10;73.30;;;;;;5000745;28;94499;-38
2023/02/22 03:33:53;;;;;;;;;;;8.10;73.30;;;;;;5001596;28;92358;-39
2023/02/22 03:36:20;;;;;;;;;;;8.10;73.30;;;;;;5001583;28;93768;-38
2023/02/22 03:38:47;;;;;;;;;;;8.10;73.30;;;;;;5000920;28;94659;-38
2023/02/22 03:41:15;;;;;;;;;;;8.00;73.20;;;;;;5001417;28;92157;-39
2023/02/22 03:43:42;;;;;;;;;;;8.00;73.30;;;;;;5001177;28;92029;-38
2023/02/22 03:46:09;;;;;;;;;;;8.00;73.30;;;;;;5001464;28;92412;-38
2023/02/22 03:48:35;;;;;;;;;;;8.00;73.20;;;;;;5001394;28;92145;-38
2023/02/22 03:51:03;;;;;;;;;;;8.00;73.40;;;;;;5003857;28;93953;-38
2023/02/22 03:53:29;;;;;;;;;;;8.00;73.30;;;;;;5000628;28;93087;-39
2023/02/22 03:55:57;;;;;;;;;;;8.00;73.40;;;;;;5001124;28;94889;-39
2023/02/22 03:58:23;;;;;;;;;;;7.90;73.30;;;;;;5000864;28;95822;-38
2023/02/22 04:00:51;;;;;;;;;;;7.90;73.30;;;;;;5000955;28;92155;-38
2023/02/22 04:03:18;;;;;;;;;;;7.90;73.30;;;;;;5001028;28;93097;-38
2023/02/22 04:05:44;;;;;;;;;;;7.90;73.30;;;;;;5000054;28;94326;-38
2023/02/22 04:08:09;;;;;;;;;;;7.90;73.20;;;;;;5000967;28;91986;-38
2023/02/22 04:10:36;;;;;;;;;;;7.90;73.30;;;;;;5001521;28;92554;-38
2023/02/22 04:13:02;;;;;;;;;;;7.90;73.30;;;;;;5003451;28;94375;-38
2023/02/22 04:15:28;;;;;;;;;;;7.80;73.30;;;;;;5000979;28;93784;-38
2023/02/22 04:17:53;;;;;;;;;;;7.80;73.40;;;;;;4999597;28;95838;-38
2023/02/22 04:20:24;;;;;;;;;;;7.80;73.30;;;;;;5000724;28;93189;-39
2023/02/22 04:22:53;;;;;;;;;;;7.80;73.40;;;;;;5000899;28;93829;-38
2023/02/22 04:25:19;;;;;;;;;;;7.80;73.30;;;;;;5000079;28;94570;-38
2023/02/22 04:27:45;;;;;;;;;;;7.80;73.30;;;;;;5000708;28;92085;-38
2023/02/22 04:30:10;;;;;;;;;;;7.70;73.30;;;;;;5000586;28;93986;-38
2023/02/22 04:32:36;;;;;;;;;;;7.70;73.30;;;;;;5000068;28;95045;-38
2023/02/22 04:35:03;;;;;;;;;;;7.70;73.30;;;;;;5004492;28;91423;-38
2023/02/22 04:37:28;;;;;;;;;;;7.70;73.30;;;;;;4999072;28;94767;-38
2023/02/22 04:39:54;;;;;;;;;;;7.70;73.30;;;;;;5000270;28;92262;-38
2023/02/22 04:42:19;;;;;;;;;;;7.70;73.40;;;;;;4999936;28;93440;-38
2023/02/22 04:44:45;;;;;;;;;;;7.70;73.30;;;;;;4999979;28;94579;-38
2023/02/22 04:47:10;;;;;;;;;;;7.70;73.30;;;;;;5000875;28;92129;-38
2023/02/22 04:49:36;;;;;;;;;;;7.60;73.40;;;;;;5000239;28;93657;-38
2023/02/22 04:52:01;;;;;;;;;;;7.60;73.40;;;;;;4999651;28;93498;-38
2023/02/22 04:54:27;;;;;;;;;;;7.60;73.40;;;;;;5000428;28;92472;-38
2023/02/22 04:56:53;;;;;;;;;;;7.60;73.40;;;;;;5002457;28;93811;-38
2023/02/22 04:59:18;;;;;;;;;;;7.60;73.40;;;;;;5000832;28;91423;-38
2023/02/22 05:01:44;;;;;;;;;;;7.60;73.40;;;;;;5000265;28;92115;-38
2023/02/22 05:04:10;;;;;;;;;;;7.50;73.40;;;;;;4999782;28;94406;-38
2023/02/22 05:06:35;;;;;;;;;;;7.50;73.30;;;;;;4998647;28;93068;-38
2023/02/22 05:09:01;;;;;;;;;;;7.50;73.40;;;;;;5000443;28;93325;-38
2023/02/22 05:11:27;;;;;;;;;;;7.50;73.50;;;;;;4999217;28;94522;-38
2023/02/22 05:13:52;;;;;;;;;;;7.50;73.40;;;;;;5000126;28;92032;-38
2023/02/22 05:16:18;;;;;;;;;;;7.50;73.40;;;;;;4999922;28;94203;-38
2023/02/22 05:18:43;;;;;;;;;;;7.50;73.40;;;;;;5002451;28;94632;-38
2023/02/22 05:21:09;;;;;;;;;;;7.50;73.50;;;;;;4999859;28;93598;-38
2023/02/22 05:23:34;;;;;;;;;;;7.50;73.50;;;;;;4999797;28;93925;-38
2023/02/22 05:26:00;;;;;;;;;;;7.40;73.40;;;;;;4999808;28;92185;-38
2023/02/22 05:28:25;;;;;;;;;;;7.40;73.40;;;;;;4999987;28;92102;-38
2023/02/22 05:30:51;;;;;;;;;;;7.40;73.50;;;;;;4998889;28;94122;-38
2023/02/22 05:33:16;;;;;;;;;;;7.40;73.50;;;;;;5000027;28;92177;-38
2023/02/22 05:35:42;;;;;;;;;;;7.40;73.50;;;;;;4999722;28;94291;-37
2023/02/22 05:38:09;;;;;;;;;;;7.30;73.40;;;;;;5002231;28;94938;-38
2023/02/22 05:40:34;;;;;;;;;;;7.40;73.50;;;;;;4999565;28;92373;-38
2023/02/22 05:43:01;;;;;;;;;;;7.40;73.40;;;;;;4999130;28;94207;-38
2023/02/22 05:45:27;;;;;;;;;;;7.40;73.50;;;;;;4999553;28;92052;-38
2023/02/22 05:47:53;;;;;;;;;;;7.30;73.40;;;;;;5000086;28;93903;-38
2023/02/22 05:50:19;;;;;;;;;;;7.30;73.40;;;;;;4998651;28;94514;-38
2023/02/22 05:52:44;;;;;;;;;;;7.30;73.40;;;;;;4999475;28;92142;-39
2023/02/22 05:55:11;;;;;;;;;;;7.30;73.50;;;;;;4998749;28;93492;-38
2023/02/22 05:57:37;;;;;;;;;;;7.30;73.50;;;;;;4998773;28;96566;-38
2023/02/22 06:00:05;;;;;;;;;;;7.30;73.40;;;;;;5002379;28;92122;-38
2023/02/22 06:02:31;;;;;;;;;;;7.30;73.50;;;;;;4998806;28;94586;-39
2023/02/22 06:04:57;;;;;;;;;;;7.30;73.40;;;;;;4999287;28;92228;-38
2023/02/22 06:07:22;;;;;;;;;;;7.30;73.50;;;;;;4999196;28;92434;-38
2023/02/22 06:09:48;;;;;;;;;;;7.20;73.40;;;;;;4998704;28;93242;-38
2023/02/22 06:12:13;;;;;;;;;;;7.20;73.30;;;;;;4999459;28;91300;-38
2023/02/22 06:14:41;;;;;;;;;;;7.20;73.40;;;;;;4999234;28;93046;-38
2023/02/22 06:17:08;;;;;;;;;;;7.20;73.50;;;;;;4998416;28;94257;-38
2023/02/22 06:19:34;;;;;;;;;;;7.20;73.50;;;;;;4998621;28;92999;-39
2023/02/22 06:22:01;;;;;;;;;;;7.20;73.40;;;;;;5001871;28;93308;-38
2023/02/22 06:24:27;;;;;;;;;;;7.20;73.40;;;;;;4998960;28;92187;-38
2023/02/22 06:26:56;;;;;;;;;;;7.20;73.40;;;;;;4999023;28;93867;-38
2023/02/22 06:29:23;;;;;;;;;;;7.20;73.30;;;;;;4998454;28;94249;-38
2023/02/22 06:31:48;;;;;;;;;;;7.20;73.40;;;;;;4999069;28;92300;-38
2023/02/22 06:34:14;;;;;;;;;;;7.10;73.30;;;;;;4998831;28;93860;-38
2023/02/22 06:36:41;;;;;;;;;;;7.20;73.40;;;;;;4998840;28;93667;-38
2023/02/22 06:39:09;;;;;;;;;;;7.10;73.40;;;;;;4998730;28;92179;-38
2023/02/22 06:41:38;;;;;;;;;;;7.10;73.50;;;;;;4998846;28;93954;-38
2023/02/22 06:44:04;;;;;;;;;;;7.10;73.30;;;;;;5000997;28;94225;-38
2023/02/22 06:46:29;;;;;;;;;;;7.10;73.40;;;;;;4998847;28;94234;-38
2023/02/22 06:48:56;;;;;;;;;;;7.10;73.40;;;;;;4998208;28;94444;-38
2023/02/22 06:51:21;;;;;;;;;;;7.10;73.50;;;;;;4998537;28;92254;-38
2023/02/22 06:53:47;;;;;;;;;;;7.10;73.40;;;;;;4998399;28;93695;-38
2023/02/22 06:56:13;;;;;;;;;;;7.10;73.40;;;;;;4998133;28;94555;-38
2023/02/22 06:58:38;;;;;;;;;;;7.10;73.40;;;;;;4998706;28;92193;-38
2023/02/22 07:01:06;;;;;;;;;;;7.10;73.30;;;;;;5000155;28;93668;-38
2023/02/22 07:03:32;;;;;;;;;;;7.10;73.40;;;;;;5001468;28;94602;-38
2023/02/22 07:05:58;;;;;;;;;;;7.10;73.40;;;;;;5004862;28;92524;-38
2023/02/22 07:08:23;;;;;;;;;;;7.00;73.40;;;;;;5000641;28;95454;-38
2023/02/22 07:10:49;;;;;;;;;;;7.10;73.30;;;;;;5001556;28;92743;-38
2023/02/22 07:13:14;;;;;;;;;;;7.10;73.40;;;;;;5001867;28;92391;-38
2023/02/22 07:15:40;;;;;;;;;;;7.10;73.40;;;;;;5001232;28;94499;-38
2023/02/22 07:18:06;;;;;;;;;;;7.10;73.40;;;;;;5001891;28;92117;-38
2023/02/22 07:20:32;;;;;;;;;;;7.00;73.40;;;;;;5001724;28;93923;-38
2023/02/22 07:22:57;;;;;;;;;;;7.10;73.40;;;;;;5001212;28;94223;-38
2023/02/22 07:25:23;;;;;;;;;;;7.10;73.40;;;;;;5002091;28;91466;-38
2023/02/22 07:27:51;;;;;;;;;;;7.00;73.30;;;;;;5004083;28;93319;-38
2023/02/22 07:30:23;;;;;;;;;;;7.10;73.30;;;;;;5001470;28;92157;-38
2023/02/22 07:32:49;;;;;;;;;;;7.10;73.30;;;;;;5000965;28;94165;-38
2023/02/22 07:35:16;;;;;;;;;;;7.10;73.30;;;;;;5000964;28;94808;-38
2023/02/22 07:37:42;;;;;;;;;;;7.10;73.30;;;;;;5001323;28;92169;-38
2023/02/22 07:40:07;;;;;;;;;;;7.00;73.30;;;;;;5001429;28;93747;-38
2023/02/22 07:42:48;;;;;;;;;;;7.00;73.30;;;;;;5000952;28;94235;-38
2023/02/22 07:45:14;;;;;;;;;;;7.10;73.30;;;;;;5001636;28;91971;-38
2023/02/22 07:47:39;;;;;;;;;;;7.10;73.30;;;;;;5004094;28;94272;-38
2023/02/22 07:50:05;;;;;;;;;;;7.10;73.20;;;;;;5002171;28;91473;-38
2023/02/22 07:52:30;;;;;;;;;;;7.10;73.20;;;;;;5001404;28;92196;-38
2023/02/22 07:54:56;;;;;;;;;;;7.10;73.30;;;;;;5000874;28;94976;-38
2023/02/22 07:57:22;;;;;;;;;;;7.10;73.20;;;;;;5000739;28;93213;-38
2023/02/22 07:59:48;;;;;;;;;;;7.10;73.20;;;;;;5001063;28;94791;-38
2023/02/22 08:02:16;;;;;;;;;;;7.10;73.20;;;;;;5000530;28;94449;-38
2023/02/22 08:04:42;;;;;;;;;;;7.10;73.20;;;;;;5001105;28;92191;-38
2023/02/22 08:07:07;;;;;;;;;;;7.10;73.20;;;;;;5000782;28;93775;-38
2023/02/22 08:09:33;;;;;;;;;;;7.10;73.20;;;;;;5003540;28;94652;-38
2023/02/22 08:11:58;;;;;;;;;;;7.10;73.10;;;;;;4999799;28;93746;-38
2023/02/22 08:14:23;;;;;;;;;;;7.10;73.20;;;;;;5000583;28;94044;-38
2023/02/22 08:16:49;;;;;;;;;;;7.10;73.20;;;;;;5001156;28;92230;-38
2023/02/22 08:19:15;;;;;;;;;;;7.10;73.20;;;;;;5001008;28;94333;-38
2023/02/22 08:21:40;;;;;;;;;;;7.10;73.20;;;;;;4999531;28;95316;-38
2023/02/22 08:24:06;;;;;;;;;;;7.10;73.20;;;;;;5000719;28;92636;-38
2023/02/22 08:26:31;;;;;;;;;;;7.10;73.20;;;;;;5000711;28;93721;-38
2023/02/22 08:28:57;;;;;;;;;;;7.10;73.10;;;;;;5000187;28;94234;-38
2023/02/22 08:31:22;;;;;;;;;;;7.10;73.20;;;;;;5003677;28;92172;-38
2023/02/22 08:33:48;;;;;;;;;;;7.10;73.20;;;;;;4999959;28;94683;-38
2023/02/22 08:36:14;;;;;;;;;;;7.10;73.20;;;;;;5000596;28;92190;-38
2023/02/22 08:38:40;;;;;;;;;;;7.10;73.20;;;;;;5001271;28;93747;-38
2023/02/22 08:41:06;;;;;;;;;;;7.10;73.30;;;;;;4999901;28;94664;-38
2023/02/22 08:43:31;;;;;;;;;;;7.10;73.20;;;;;;5000624;28;91949;-38
2023/02/22 08:45:56;;;;;;;;;;;7.10;73.30;;;;;;5000147;28;93039;-37
2023/02/22 08:48:22;;;;;;;;;;;7.10;73.30;;;;;;5000222;28;92963;-38
2023/02/22 08:50:48;;;;;;;;;;;7.10;73.20;;;;;;5000289;28;92190;-38
2023/02/22 08:53:15;;;;;;;;;;;7.10;73.30;;;;;;5002981;28;93714;-38
2023/02/22 08:55:41;;;;;;;;;;;7.10;73.30;;;;;;5000210;28;92179;-38
2023/02/22 08:58:09;;;;;;;;;;;7.20;73.40;;;;;;5000997;28;91937;-38
2023/02/22 09:00:35;;;;;;;;;;;7.20;73.50;;;;;;4999532;28;94416;-38
2023/02/22 09:03:01;;;;;;;;;;;7.10;73.50;;;;;;5000727;28;91442;-38
2023/02/22 09:05:27;;;;;;;;;;;7.10;73.50;;;;;;5000253;28;92108;-38
2023/02/22 09:07:52;;;;;;;;;;;7.20;73.50;;;;;;4999608;28;94513;-38
2023/02/22 09:10:20;;;;;;;;;;;7.20;73.50;;;;;;4999295;28;93142;-38
2023/02/22 09:12:45;;;;;;;;;;;7.10;73.50;;;;;;5000053;28;92750;-38
2023/02/22 09:15:11;;;;;;;;;;;7.10;73.50;;;;;;5002566;28;94354;-39
2023/02/22 09:17:37;;;;;;;;;;;7.20;73.60;;;;;;4999987;28;93783;-38
2023/02/22 09:20:06;;;;;;;;;;;7.20;73.70;;;;;;4999141;28;94668;-38
2023/02/22 09:22:31;;;;;;;;;;;7.20;73.60;;;;;;4999689;28;92180;-38
2023/02/22 09:24:57;;;;;;;;;;;7.20;73.60;;;;;;4999577;28;92134;-39
2023/02/22 09:27:22;;;;;;;;;;;7.20;73.60;;;;;;4999997;28;92362;-39
2023/02/22 09:29:48;;;;;;;;;;;7.20;73.60;;;;;;5000065;28;92235;-38
2023/02/22 09:32:16;;;;;;;;;;;7.20;73.60;;;;;;4999974;28;93591;-38
2023/02/22 09:34:44;;;;;;;;;;;7.10;73.60;;;;;;4998504;28;93991;-38
2023/02/22 09:37:10;;;;;;;;;;;7.20;73.60;;;;;;5002625;28;92167;-38
2023/02/22 09:39:36;;;;;;;;;;;7.20;73.70;;;;;;4999153;28;94597;-38
2023/02/22 09:42:12;;;;;;;;;;;7.20;73.70;;;;;;4999652;28;91966;-38
2023/02/22 09:44:40;;;;;;;;;;;7.20;73.70;;;;;;4999514;28;93863;-39
2023/02/22 09:47:13;;;;;;;;;;;7.30;73.70;;;;;;4999063;28;94692;-38
2023/02/22 09:49:53;;;;;;;;;;;7.20;73.60;;;;;;4999503;28;92246;-38
2023/02/22 09:52:26;;;;;;;;;;;7.20;73.70;;;;;;5000156;28;94350;-38
2023/02/22 09:54:56;;;;;;;;;;;7.30;73.70;;;;;;4998821;28;93572;-39
2023/02/22 09:57:26;;;;;;;;;;;7.30;73.70;;;;;;5002433;28;92131;-38
2023/02/22 10:00:12;;;;;;;;;;;7.30;73.70;;;;;;4998100;28;94028;-38
2023/02/22 10:02:56;;;;;;;;;;;7.30;73.70;;;;;;4999435;28;92171;-38
2023/02/22 10:05:28;;;;;;;;;;;7.30;74.20;;;;;;4999039;28;93701;-38
2023/02/22 10:08:04;;;;;;;;;;;7.30;73.70;;;;;;4999046;28;93065;-38
2023/02/22 10:10:38;;;;;;;;;;;7.30;73.70;;;;;;4999208;28;92191;-38
2023/02/22 10:13:04;;;;;;;;;;;7.40;73.80;;;;;;4999270;28;93810;-38
2023/02/22 10:15:53;;;;;;;;;;;7.30;73.70;;;;;;4998640;28;93991;-38
2023/02/22 10:18:19;;;;;;;;;;;7.30;73.70;;;;;;4999690;28;91423;-39
2023/02/22 10:20:45;;;;;;;;;;;7.40;73.80;;;;;;5001274;28;93107;-38
2023/02/22 10:23:39;;;;;;;;;;;7.40;73.80;;;;;;4998914;28;92242;-38
2023/02/22 10:26:24;;;;;;;;;;;7.40;73.80;;;;;;4960886;28;93929;-38
2023/02/22 10:29:00;;;;;;;;;;;7.40;73.70;;;;;;4998576;28;94693;-38
2023/02/22 10:31:34;;;;;;;;;;;7.40;73.80;;;;;;4998821;28;92157;-38
2023/02/22 10:34:22;;;;;;;;;;;7.40;73.80;;;;;;4998977;28;94151;-39
2023/02/22 10:36:49;;;;;;;;;;;7.40;73.70;;;;;;5000799;28;95205;-38
2023/02/22 10:39:29;;;;;;;;;;;7.50;73.80;;;;;;5002362;28;92101;-38
2023/02/22 10:41:55;;;;;;;;;;;7.50;73.80;;;;;;5002416;28;93725;-38
2023/02/22 10:44:21;;;;;;;;;;;7.50;73.80;;;;;;5005252;28;93564;-38
2023/02/22 10:46:47;;;;;;;;;;;7.60;73.80;;;;;;5002391;28;93149;-39
2023/02/22 10:49:17;;;;;;;;;;;7.60;73.80;;;;;;5001888;28;93857;-38
2023/02/22 10:51:43;;;;;;;;;;;7.60;73.70;;;;;;5001584;28;93154;-39
2023/02/22 10:54:14;;;;;;;;;;;7.60;73.80;;;;;;5002117;28;94821;-38
2023/02/22 10:57:05;;;;;;;;;;;7.60;73.80;;;;;;5001803;28;93727;-38
2023/02/22 10:59:36;;;;;;;;;;;7.60;73.80;;;;;;4999829;28;92040;-38
2023/02/22 11:02:08;;;;;;;;;;;7.70;73.80;;;;;;5002066;28;94487;-38
2023/02/22 11:04:59;;;;;;;;;;;7.70;73.90;;;;;;5001572;28;94481;-39
2023/02/22 11:07:29;;;;;;;;;;;7.70;73.80;;;;;;5002338;28;92196;-38
2023/02/22 11:09:56;;;;;;;;;;;7.70;73.80;;;;;;5002007;28;93983;-39
2023/02/22 11:12:25;;;;;;;;;;;7.70;73.70;;;;;;5001996;28;92960;-38
2023/02/22 11:14:50;;;;;;;;;;;7.70;73.80;;;;;;5001975;28;93740;-38
2023/02/22 11:17:27;;;;;;;;;;;7.70;73.70;;;;;;5000345;28;95607;-38
2023/02/22 11:19:52;;;;;;;;;;;7.80;73.80;;;;;;5001862;28;92125;-38
2023/02/22 11:22:29;;;;;;;;;;;7.80;73.80;;;;;;5001905;28;93862;-38
2023/02/22 11:25:00;;;;;;;;;;;7.80;73.70;;;;;;5001554;28;92678;-38
2023/02/22 11:27:30;;;;;;;;;;;7.90;74.40;;;;;;5001957;28;92411;-38
2023/02/22 11:30:05;;;;;;;;;;;7.90;73.80;;;;;;5004125;28;94007;-38
2023/02/22 11:32:31;;;;;;;;;;;7.90;73.80;;;;;;5001650;28;91910;-38
2023/02/22 11:35:15;;;;;;;;;;;7.90;73.90;;;;;;5002318;28;92332;-39
2023/02/22 11:37:41;;;;;;;;;;;7.90;73.90;;;;;;5001173;28;94503;-38
2023/02/22 11:40:06;;;;;;;;;;;8.00;73.90;;;;;;5001294;28;92152;-38
2023/02/22 11:42:32;;;;;;;;;;;8.00;74.00;;;;;;5000714;28;93972;-38
2023/02/22 11:45:26;;;;;;;;;;;8.00;74.10;;;;;;5000796;28;94733;-39
2023/02/22 11:47:53;;;;;;;;;;;8.00;74.10;;;;;;4999673;28;92391;-39
2023/02/22 11:50:21;;;;;;;;;;;8.10;74.10;;;;;;5004189;28;92370;-38
2023/02/22 11:52:51;;;;;;;;;;;8.10;74.20;;;;;;5001028;28;92139;-38
2023/02/22 11:55:22;;;;;;;;;;;8.10;74.20;;;;;;5001176;28;93023;-39
2023/02/22 11:57:54;;;;;;;;;;;8.10;74.10;;;;;;5000743;28;94399;-38
2023/02/22 12:00:23;;;;;;;;;;;8.20;74.00;;;;;;5001512;28;91438;-39
2023/02/22 12:03:07;;;;;;;;;;;8.20;74.10;;;;;;5001331;28;92050;-38
2023/02/22 12:05:36;;;;;;;;;;;8.20;74.30;;;;;;5000106;28;94609;-38
2023/02/22 12:08:07;;;;;;;;;;;8.20;74.30;;;;;;5000669;28;92982;-38
2023/02/22 12:10:40;;;;;;;;;;;8.20;74.10;;;;;;5000937;28;94793;-39
2023/02/22 12:13:20;;;;;;;;;;;8.30;74.10;;;;;;5003227;28;94386;-38
2023/02/22 12:15:48;;;;;;;;;;;8.30;74.20;;;;;;5000837;28;93463;-38
2023/02/22 12:18:17;;;;;;;;;;;8.30;74.30;;;;;;5000317;28;95050;-38
2023/02/22 12:20:45;;;;;;;;;;;8.40;74.10;;;;;;5000596;28;92154;-38
2023/02/22 12:23:19;;;;;;;;;;;8.40;74.00;;;;;;5000889;28;93072;-38
2023/02/22 12:26:06;;;;;;;;;;;8.40;74.40;;;;;;5000828;28;93806;-39
2023/02/22 12:28:37;;;;;;;;;;;8.40;74.20;;;;;;5000952;28;91992;-39
2023/02/22 12:31:05;;;;;;;;;;;8.40;73.90;;;;;;5000709;28;92387;-38
2023/02/22 12:33:37;;;;;;;;;;;8.40;73.80;;;;;;4999299;28;97896;-39
2023/02/22 12:36:03;;;;;;;;;;;8.50;73.90;;;;;;5004074;28;92121;-38
2023/02/22 12:38:43;;;;;;;;;;;8.50;73.80;;;;;;5000228;28;93692;-39
2023/02/22 12:41:16;;;;;;;;;;;8.50;73.80;;;;;;5000536;28;92128;-38
2023/02/22 12:43:50;;;;;;;;;;;8.50;73.80;;;;;;5000573;28;92913;-38
2023/02/22 12:46:21;;;;;;;;;;;8.50;73.80;;;;;;5000100;28;94720;-38
2023/02/22 12:48:50;;;;;;;;;;;8.50;73.80;;;;;;5000468;28;92174;-38
2023/02/22 12:51:28;;;;;;;;;;;8.60;73.90;;;;;;5000617;28;92544;-39
2023/02/22 12:53:57;;;;;;;;;;;8.60;73.80;;;;;;4999868;28;94548;-39
2023/02/22 12:56:28;;;;;;;;;;;8.60;73.60;;;;;;5000299;28;92439;-38
2023/02/22 12:58:58;;;;;;;;;;;8.70;73.80;;;;;;5001166;28;92964;-38
2023/02/22 13:01:26;;;;;;;;;;;8.70;74.00;;;;;;5000066;28;92125;-38
2023/02/22 13:03:52;;;;;;;;;;;8.70;73.90;;;;;;5000321;28;92397;-39
2023/02/22 13:06:21;;;;;;;;;;;8.80;74.00;;;;;;4999331;28;94538;-38
2023/02/22 13:09:05;;;;;;;;;;;8.80;73.80;;;;;;4999965;28;92185;-38
2023/02/22 13:11:49;;;;;;;;;;;8.80;73.80;;;;;;4999940;28;93863;-38
2023/02/22 13:14:33;;;;;;;;;;;8.80;73.70;;;;;;4999343;28;94419;-39
2023/02/22 13:17:12;;;;;;;;;;;8.80;73.70;;;;;;5000730;28;91447;-38
2023/02/22 13:19:37;;;;;;;;;;;8.90;73.70;;;;;;5000051;28;92751;-38
2023/02/22 13:22:26;;;;;;;;;;;8.90;73.90;;;;;;5002568;28;93712;-38
2023/02/22 13:25:10;;;;;;;;;;;8.90;74.00;;;;;;4979167;28;94164;-38
2023/02/22 13:27:39;;;;;;;;;;;8.90;73.80;;;;;;4999323;28;94594;-39
2023/02/22 13:30:08;;;;;;;;;;;8.90;73.70;;;;;;4999860;28;92165;-38
2023/02/22 13:32:52;;;;;;;;;;;9.00;73.60;;;;;;4999867;28;93836;-38
2023/02/22 13:35:38;;;;;;;;;;;9.00;73.50;;;;;;4999018;28;94651;-38
2023/02/22 13:38:24;;;;;;;;;;;9.00;74.00;;;;;;4999248;28;92209;-38
2023/02/22 13:40:52;;;;;;;;;;;9.00;74.00;;;;;;4999590;28;93806;-38
2023/02/22 13:43:37;;;;;;;;;;;9.10;74.10;;;;;;4999405;28;93551;-38
2023/02/22 13:46:02;;;;;;;;;;;9.10;74.00;;;;;;5002509;28;92207;-38
2023/02/22 13:48:30;;;;;;;;;;;9.10;73.60;;;;;;4998989;28;94690;-39
2023/02/22 13:51:14;;;;;;;;;;;9.10;73.70;;;;;;4998675;28;93125;-39
2023/02/22 13:53:42;;;;;;;;;;;9.20;73.80;;;;;;4999340;28;94848;-38
2023/02/22 13:56:08;;;;;;;;;;;9.20;73.90;;;;;;4998625;28;94571;-38
2023/02/22 13:58:45;;;;;;;;;;;9.20;74.10;;;;;;4999493;28;92156;-38
2023/02/22 14:01:31;;;;;;;;;;;9.20;74.10;;;;;;4999278;28;93708;-39
2023/02/22 14:04:16;;;;;;;;;;;9.30;74.20;;;;;;4998929;28;93208;-38
2023/02/22 14:06:43;;;;;;;;;;;9.30;74.20;;;;;;5001828;28;92126;-39
2023/02/22 14:09:13;;;;;;;;;;;9.30;74.10;;;;;;4999283;28;93626;-38
2023/02/22 14:11:41;;;;;;;;;;;9.40;74.20;;;;;;4999005;28;92149;-39
2023/02/22 14:14:07;;;;;;;;;;;9.40;74.10;;;;;;4999236;28;94039;-39
2023/02/22 14:16:34;;;;;;;;;;;9.40;74.30;;;;;;4997910;28;95366;-39
2023/02/22 14:19:12;;;;;;;;;;;9.40;74.30;;;;;;4999035;28;92117;-39
2023/02/22 14:21:54;;;;;;;;;;;9.50;74.20;;;;;;4999221;28;93075;-39
2023/02/22 14:24:20;;;;;;;;;;;9.50;74.30;;;;;;4998721;28;94675;-39
2023/02/22 14:26:53;;;;;;;;;;;9.50;74.90;;;;;;4998775;28;92224;-39
2023/02/22 14:29:20;;;;;;;;;;;9.50;74.40;;;;;;5001408;28;93702;-39
2023/02/22 14:31:45;;;;;;;;;;;9.60;74.40;;;;;;4998772;28;92261;-38
2023/02/22 14:34:14;;;;;;;;;;;9.60;74.40;;;;;;4999646;28;92396;-38
2023/02/22 14:36:45;;;;;;;;;;;9.60;75.10;;;;;;4998354;28;94968;-39
2023/02/22 14:39:11;;;;;;;;;;;9.60;74.60;;;;;;4998848;28;92067;-39
2023/02/22 14:41:38;;;;;;;;;;;9.70;74.70;;;;;;4997984;28;93179;-39
2023/02/22 14:44:04;;;;;;;;;;;9.70;74.40;;;;;;4998235;28;93896;-39